createdAt,value
2022-11-19T00:03:04.833Z,14.00
2022-11-19T00:08:07.665Z,15.23
2022-11-19T00:13:12.952Z,16.60
2022-11-19T00:18:15.713Z,16.77
2022-11-19T00:23:18.450Z,17.20
2022-11-19T00:28:22.591Z,16.73
2022-11-19T00:33:25.357Z,15.10
2022-11-19T00:38:28.392Z,16.27
2022-11-19T00:43:48.186Z,19.50
2022-11-19T00:48:52.609Z,16.70
2022-11-19T00:53:55.846Z,18.47
2022-11-19T00:58:59.883Z,15.50
2022-11-19T01:04:02.652Z,16.60
2022-11-19T01:09:05.790Z,15.67
2022-11-19T01:14:09.979Z,19.20
2022-11-19T01:19:16.959Z,18.87
2022-11-19T01:24:20.095Z,17.97
2022-11-19T01:29:24.300Z,18.07
2022-11-19T01:34:27.152Z,18.17
2022-11-19T01:39:29.987Z,16.63
2022-11-19T01:45:02.450Z,16.30
2022-11-19T01:50:06.064Z,18.50
2022-11-19T01:55:10.049Z,20.27
2022-11-19T02:00:15.235Z,16.07
2022-11-19T02:05:18.643Z,19.90
2022-11-19T02:10:25.825Z,19.87
2022-11-19T02:15:41.323Z,23.60
2022-11-19T02:21:07.457Z,20.63
2022-11-19T02:26:40.622Z,21.23
2022-11-19T02:31:52.230Z,17.43
2022-11-19T02:37:01.075Z,19.60
2022-11-19T02:42:09.079Z,18.90
2022-11-19T02:47:15.413Z,29.63
2022-11-19T02:52:19.623Z,18.93
2022-11-19T02:57:22.421Z,19.47
2022-11-19T03:02:48.005Z,22.77
2022-11-19T03:07:51.359Z,19.77
2022-11-19T03:12:59.473Z,20.77
2022-11-19T03:18:07.801Z,20.10
2022-11-19T03:23:14.731Z,20.60
2022-11-19T03:28:22.485Z,21.60
2022-11-19T03:33:32.011Z,23.80
2022-11-19T03:38:39.397Z,20.47
2022-11-19T03:43:46.752Z,24.80
2022-11-19T03:48:54.308Z,18.43
2022-11-19T03:53:57.380Z,20.73
2022-11-19T03:59:00.353Z,20.90
2022-11-19T04:04:22.302Z,19.87
2022-11-19T04:09:25.055Z,22.23
2022-11-19T04:14:28.401Z,20.93
2022-11-19T04:19:32.516Z,20.80
2022-11-19T04:24:35.360Z,19.97
2022-11-19T04:29:38.111Z,22.27
2022-11-19T04:34:42.260Z,20.87
2022-11-19T04:39:45.058Z,21.17
2022-11-19T04:44:47.782Z,23.73
2022-11-19T04:49:51.851Z,20.33
2022-11-19T04:54:54.557Z,22.43
2022-11-19T04:59:57.295Z,22.63
2022-11-19T05:05:01.321Z,20.80
2022-11-19T05:10:04.905Z,22.07
2022-11-19T05:15:08.668Z,19.73
2022-11-19T05:20:13.391Z,22.27
2022-11-19T05:25:16.225Z,18.87
2022-11-19T05:30:19.199Z,20.63
2022-11-19T05:35:23.342Z,20.47
2022-11-19T05:40:26.111Z,19.53
2022-11-19T05:45:28.825Z,22.13
2022-11-19T05:50:32.923Z,21.67
2022-11-19T05:55:35.719Z,19.30
2022-11-19T06:00:38.473Z,22.00
2022-11-19T06:05:42.524Z,18.40
2022-11-19T06:10:45.353Z,24.60
2022-11-19T06:15:48.078Z,21.03
2022-11-19T06:20:52.198Z,21.20
2022-11-19T06:25:55.550Z,24.47
2022-11-19T06:30:58.300Z,27.03
2022-11-19T06:36:02.397Z,25.47
2022-11-19T06:41:05.267Z,26.63
2022-11-19T06:46:08.373Z,23.47
2022-11-19T06:51:12.531Z,22.17
2022-11-19T06:56:15.338Z,20.93
2022-11-19T07:01:18.175Z,24.03
2022-11-19T07:06:22.308Z,26.83
2022-11-19T07:11:27.997Z,29.37
2022-11-19T07:16:32.440Z,27.30
2022-11-19T07:21:37.452Z,25.37
2022-11-19T07:26:40.212Z,25.30
2022-11-19T07:31:43.061Z,19.90
2022-11-19T07:36:47.939Z,21.80
2022-11-19T07:42:08.460Z,18.30
2022-11-19T07:47:11.287Z,13.70
2022-11-19T07:52:15.370Z,13.07
2022-11-19T07:57:18.191Z,13.63
2022-11-19T08:02:20.955Z,13.57
2022-11-19T08:07:25.165Z,12.23
2022-11-19T08:12:27.974Z,13.57
2022-11-19T08:17:48.537Z,14.17
2022-11-19T08:22:53.051Z,13.77
2022-11-19T08:27:55.774Z,14.07
2022-11-19T08:32:58.954Z,12.82
2022-11-19T08:38:03.097Z,12.20
2022-11-19T08:43:12.718Z,11.20
2022-11-19T08:48:15.434Z,12.35
2022-11-19T08:53:19.626Z,12.25
2022-11-19T08:58:22.684Z,11.88
2022-11-19T09:03:25.635Z,11.18
2022-11-19T09:08:30.003Z,13.23
2022-11-19T09:13:33.271Z,10.13
2022-11-19T09:18:38.975Z,11.18
2022-11-19T09:23:43.390Z,13.20
2022-11-19T09:28:46.532Z,11.13
2022-11-19T09:33:51.235Z,14.10
2022-11-19T09:38:58.949Z,11.85
2022-11-19T09:44:13.728Z,12.80
2022-11-19T09:49:24.027Z,13.48
2022-11-19T09:54:28.581Z,14.05
2022-11-19T09:59:36.197Z,12.75
2022-11-19T10:04:38.962Z,13.43
2022-11-19T10:09:51.731Z,13.60
2022-11-19T10:15:11.368Z,12.43
2022-11-19T10:20:33.078Z,14.02
2022-11-19T10:25:39.911Z,11.55
2022-11-19T10:30:48.945Z,12.27
2022-11-19T10:35:55.288Z,13.63
2022-11-19T10:41:04.985Z,12.13
2022-11-19T10:46:11.466Z,12.55
2022-11-19T10:51:22.005Z,11.50
2022-11-19T10:56:39.838Z,13.48
2022-11-19T11:01:45.564Z,12.38
2022-11-19T11:06:54.010Z,11.05
2022-11-19T11:12:16.882Z,9.30
2022-11-19T11:17:22.528Z,9.65
2022-11-19T11:22:26.345Z,11.10
2022-11-19T11:27:33.432Z,12.00
2022-11-19T11:32:36.193Z,8.00
2022-11-19T11:37:39.457Z,8.93
2022-11-19T11:42:46.819Z,7.13
2022-11-19T11:47:49.689Z,5.45
2022-11-19T11:52:55.321Z,6.20
2022-11-19T11:58:01.401Z,2.78
2022-11-19T12:03:06.180Z,7.80
2022-11-19T12:08:25.619Z,6.57
2022-11-19T12:13:50.246Z,6.18
2022-11-19T12:19:08.263Z,8.00
2022-11-19T12:24:34.868Z,3.17
2022-11-19T12:29:46.209Z,3.55
2022-11-19T12:35:01.648Z,5.72
2022-11-19T12:40:20.035Z,6.15
2022-11-19T12:45:36.341Z,6.32
2022-11-19T12:50:48.892Z,7.05
2022-11-19T12:56:03.841Z,6.50
2022-11-19T13:01:15.290Z,4.95
2022-11-19T13:06:23.291Z,7.70
2022-11-19T13:11:36.275Z,5.57
2022-11-19T13:16:42.315Z,7.00
2022-11-19T13:21:50.570Z,6.40
2022-11-19T13:26:55.260Z,6.70
2022-11-19T13:32:03.954Z,6.03
2022-11-19T13:37:14.883Z,5.20
2022-11-19T13:42:37.019Z,6.67
2022-11-19T13:47:46.785Z,6.37
2022-11-19T13:52:58.773Z,7.80
2022-11-19T13:58:17.410Z,8.30
2022-11-19T14:03:39.714Z,7.30
2022-11-19T14:09:00.137Z,6.40
2022-11-19T14:14:31.891Z,7.23
2022-11-19T14:20:08.401Z,6.77
2022-11-19T14:25:28.953Z,6.80
2022-11-19T14:31:02.797Z,97.07
2022-11-19T14:36:14.151Z,11.63
2022-11-19T14:41:23.686Z,11.33
2022-11-19T14:46:28.313Z,8.83
2022-11-19T14:51:36.187Z,7.67
2022-11-19T14:56:39.752Z,7.33
2022-11-19T15:01:53.584Z,10.83
2022-11-19T15:06:58.292Z,9.10
2022-11-19T15:12:02.211Z,9.30
2022-11-19T15:17:07.267Z,8.83
2022-11-19T15:22:31.286Z,9.13
2022-11-19T15:27:46.733Z,13.60
2022-11-19T15:33:04.791Z,10.33
2022-11-19T15:38:20.428Z,12.37
2022-11-19T15:43:26.353Z,10.40
2022-11-19T15:48:38.257Z,12.17
2022-11-19T15:53:58.630Z,17.33
2022-11-19T15:59:03.394Z,18.33
2022-11-19T16:04:08.474Z,16.07
2022-11-19T16:09:20.178Z,14.40
2022-11-19T16:14:42.232Z,15.90
2022-11-19T16:19:44.985Z,19.70
2022-11-19T16:25:04.960Z,25.40
2022-11-19T16:30:16.690Z,25.67
2022-11-19T16:35:24.902Z,24.10
2022-11-19T16:40:52.154Z,40.00
2022-11-19T16:45:55.170Z,44.43
2022-11-19T16:50:57.935Z,51.43
2022-11-19T16:56:02.303Z,36.90
2022-11-19T17:01:05.267Z,34.17
2022-11-19T17:06:10.028Z,31.90
2022-11-19T17:11:39.990Z,30.03
2022-11-19T17:16:47.242Z,29.50
2022-11-19T17:21:55.775Z,28.83
2022-11-19T17:27:00.005Z,29.97
2022-11-19T17:32:05.145Z,29.03
2022-11-19T17:37:09.819Z,30.90
2022-11-19T17:42:31.759Z,30.93
2022-11-19T17:47:34.499Z,38.17
2022-11-19T17:52:37.267Z,41.53
2022-11-19T17:57:42.859Z,40.50
2022-11-19T18:02:48.615Z,39.20
2022-11-19T18:07:51.610Z,39.63
2022-11-19T18:12:55.907Z,41.77
2022-11-19T18:17:58.699Z,41.27
2022-11-19T18:23:01.421Z,37.80
2022-11-19T18:28:05.532Z,33.87
2022-11-19T18:33:10.407Z,34.90
2022-11-19T18:38:13.543Z,37.27
2022-11-19T18:43:39.740Z,41.00
2022-11-19T18:48:42.842Z,35.10
2022-11-19T18:53:45.563Z,36.63
2022-11-19T18:58:49.723Z,41.37
2022-11-19T19:03:53.303Z,41.80
2022-11-19T19:08:56.100Z,36.77
2022-11-19T19:14:00.833Z,40.43
2022-11-19T19:19:03.873Z,35.40
2022-11-19T19:24:07.411Z,42.90
2022-11-19T19:29:12.288Z,44.60
2022-11-19T19:34:17.010Z,48.70
2022-11-19T19:39:21.507Z,46.43
2022-11-19T19:44:27.078Z,46.20
2022-11-19T19:49:33.484Z,49.40
2022-11-19T20:01:34.570Z,41.83
2022-11-19T20:07:16.557Z,36.10
2022-11-19T20:13:31.202Z,41.03
2022-11-19T20:19:25.359Z,35.27
2022-11-19T20:25:15.476Z,34.47
2022-11-19T20:30:23.013Z,40.60
2022-11-19T20:35:29.314Z,30.90
2022-11-19T20:40:43.268Z,39.77
2022-11-19T20:46:06.526Z,32.57
2022-11-19T20:51:14.748Z,41.00
2022-11-19T20:56:25.566Z,38.37
2022-11-19T21:01:34.809Z,35.50
2022-11-19T21:06:43.178Z,40.33
2022-11-19T21:11:47.488Z,36.77
2022-11-19T21:16:50.581Z,39.43
2022-11-19T21:21:53.692Z,39.93
2022-11-19T21:26:59.829Z,40.37
2022-11-19T21:32:02.725Z,42.43
2022-11-19T21:37:11.613Z,43.77
2022-11-19T21:42:16.370Z,40.60
2022-11-19T21:47:19.458Z,39.53
2022-11-19T21:52:26.537Z,39.40
2022-11-19T21:57:31.148Z,38.03
2022-11-19T22:02:34.202Z,38.33
2022-11-19T22:07:40.951Z,39.20
2022-11-19T22:13:00.323Z,40.23
2022-11-19T22:18:03.379Z,36.60
2022-11-19T22:23:06.127Z,41.00
2022-11-19T22:28:10.207Z,40.93
2022-11-19T22:33:12.935Z,40.90
2022-11-19T22:38:16.282Z,37.00
2022-11-19T22:43:22.983Z,42.47
2022-11-19T22:48:25.915Z,40.37
2022-11-19T22:53:28.674Z,38.90
2022-11-19T22:58:33.061Z,38.47
2022-11-19T23:03:35.957Z,39.10
2022-11-19T23:08:39.017Z,38.60
2022-11-19T23:13:45.266Z,40.67
2022-11-19T23:18:49.878Z,40.67
2022-11-19T23:23:53.072Z,37.73
2022-11-19T23:28:57.566Z,39.63
2022-11-19T23:34:00.436Z,45.60
2022-11-19T23:39:03.499Z,38.87
2022-11-19T23:44:07.561Z,43.63
2022-11-19T23:49:12.232Z,38.50
2022-11-19T23:54:15.296Z,34.13
2022-11-19T23:59:24.333Z,40.87
